createdAt,value
2022-09-02T00:01:31.507Z,14.99
2022-09-02T00:04:08.300Z,14.93
2022-09-02T00:06:36.320Z,14.93
2022-09-02T00:09:05.703Z,14.91
2022-09-02T00:11:34.235Z,14.88
2022-09-02T00:14:04.808Z,14.87
2022-09-02T00:16:33.319Z,14.90
2022-09-02T00:19:02.489Z,14.97
2022-09-02T00:21:30.264Z,14.99
2022-09-02T00:23:57.386Z,14.97
2022-09-02T00:26:24.643Z,14.85
2022-09-02T00:28:56.150Z,14.88
2022-09-02T00:31:25.242Z,14.97
2022-09-02T00:33:53.395Z,14.99
2022-09-02T00:36:21.164Z,14.96
2022-09-02T00:38:48.269Z,14.98
2022-09-02T00:41:15.542Z,15.06
2022-09-02T00:43:54.656Z,15.09
2022-09-02T00:46:25.001Z,15.09
2022-09-02T00:49:00.972Z,15.11
2022-09-02T00:51:32.076Z,15.07
2022-09-02T00:53:59.655Z,15.02
2022-09-02T00:56:28.615Z,14.98
2022-09-02T00:58:56.048Z,15.00
2022-09-02T01:01:23.534Z,14.94
2022-09-02T01:03:51.384Z,14.86
2022-09-02T01:06:21.852Z,14.92
2022-09-02T01:08:54.333Z,14.97
2022-09-02T01:11:22.700Z,14.93
2022-09-02T01:13:49.841Z,14.96
2022-09-02T01:16:24.705Z,14.96
2022-09-02T01:18:55.688Z,14.99
2022-09-02T01:21:23.267Z,14.92
2022-09-02T01:23:52.236Z,14.85
2022-09-02T01:26:19.662Z,14.88
2022-09-02T01:28:47.222Z,14.96
2022-09-02T01:31:14.717Z,14.99
2022-09-02T01:33:41.905Z,15.04
2022-09-02T01:36:11.002Z,15.08
2022-09-02T01:38:38.781Z,15.01
2022-09-02T01:41:05.967Z,15.05
2022-09-02T01:43:33.312Z,15.05
2022-09-02T01:46:02.042Z,15.03
2022-09-02T01:48:29.222Z,15.01
2022-09-02T01:50:59.325Z,14.98
2022-09-02T01:53:27.215Z,15.03
2022-09-02T01:55:54.374Z,15.04
2022-09-02T01:58:21.898Z,15.00
2022-09-02T02:00:49.110Z,14.92
2022-09-02T02:03:16.578Z,14.92
2022-09-02T02:05:43.767Z,14.96
2022-09-02T02:08:11.079Z,15.00
2022-09-02T02:10:40.871Z,14.93
2022-09-02T02:13:08.237Z,14.87
2022-09-02T02:15:38.762Z,14.82
2022-09-02T02:18:05.906Z,14.88
2022-09-02T02:20:33.076Z,14.90
2022-09-02T02:23:00.406Z,14.80
2022-09-02T02:25:28.041Z,14.72
2022-09-02T02:27:55.277Z,14.73
2022-09-02T02:30:23.727Z,14.72
2022-09-02T02:32:50.906Z,14.75
2022-09-02T02:35:19.134Z,14.76
2022-09-02T02:37:49.099Z,14.83
2022-09-02T02:40:19.543Z,14.78
2022-09-02T02:42:47.360Z,14.76
2022-09-02T02:45:15.391Z,14.66
2022-09-02T02:47:45.980Z,14.69
2022-09-02T02:50:15.801Z,14.69
2022-09-02T02:52:43.656Z,14.66
2022-09-02T02:55:13.069Z,14.56
2022-09-02T02:57:42.719Z,14.43
2022-09-02T03:00:12.443Z,14.47
2022-09-02T03:02:39.731Z,14.53
2022-09-02T03:05:08.399Z,14.54
2022-09-02T03:07:35.511Z,14.44
2022-09-02T03:10:08.160Z,14.35
2022-09-02T03:12:36.721Z,14.24
2022-09-02T03:15:04.703Z,14.23
2022-09-02T03:17:31.874Z,14.22
2022-09-02T03:19:59.461Z,14.19
2022-09-02T03:22:27.311Z,14.14
2022-09-02T03:24:54.613Z,14.22
2022-09-02T03:27:21.882Z,14.12
2022-09-02T03:29:48.984Z,14.07
2022-09-02T03:32:16.098Z,14.04
2022-09-02T03:34:43.663Z,14.07
2022-09-02T03:37:10.827Z,14.06
2022-09-02T03:39:39.638Z,14.13
2022-09-02T03:42:07.308Z,14.14
2022-09-02T03:44:44.996Z,14.13
2022-09-02T03:47:13.965Z,14.01
2022-09-02T03:49:41.297Z,13.94
2022-09-02T03:52:11.031Z,13.90
2022-09-02T03:54:38.136Z,13.86
2022-09-02T03:57:05.784Z,13.87
2022-09-02T03:59:33.041Z,13.88
2022-09-02T04:02:03.535Z,13.81
2022-09-02T04:04:30.784Z,13.84
2022-09-02T04:06:58.170Z,13.80
2022-09-02T04:09:25.291Z,13.78
2022-09-02T04:11:52.375Z,13.75
2022-09-02T04:14:19.660Z,13.69
2022-09-02T04:16:47.167Z,13.71
2022-09-02T04:19:14.273Z,13.73
2022-09-02T04:21:41.947Z,13.68
2022-09-02T04:24:10.348Z,13.70
2022-09-02T04:26:37.668Z,13.72
2022-09-02T04:29:12.033Z,13.68
2022-09-02T04:31:39.149Z,13.76
2022-09-02T04:34:07.392Z,13.85
2022-09-02T04:36:34.844Z,13.81
2022-09-02T04:39:02.013Z,13.72
2022-09-02T04:41:30.285Z,13.69
2022-09-02T04:43:59.512Z,13.76
2022-09-02T04:46:34.405Z,13.74
2022-09-02T04:49:02.682Z,13.72
2022-09-02T04:51:29.760Z,13.71
2022-09-02T04:53:56.849Z,13.64
2022-09-02T04:56:26.096Z,13.65
2022-09-02T04:58:54.428Z,13.65
2022-09-02T05:01:24.687Z,13.68
2022-09-02T05:03:52.207Z,13.79
2022-09-02T05:06:27.403Z,13.83
2022-09-02T05:08:56.313Z,13.84
2022-09-02T05:11:28.337Z,13.86
2022-09-02T05:13:58.021Z,13.85
2022-09-02T05:16:28.176Z,13.76
2022-09-02T05:18:55.852Z,13.79
2022-09-02T05:21:24.075Z,13.73
2022-09-02T05:23:52.126Z,13.76
2022-09-02T05:26:22.618Z,13.83
2022-09-02T05:28:50.493Z,13.91
2022-09-02T05:31:19.415Z,13.89
2022-09-02T05:33:46.851Z,13.87
2022-09-02T05:36:21.395Z,13.95
2022-09-02T05:38:49.010Z,13.98
2022-09-02T05:41:23.232Z,14.07
2022-09-02T05:43:55.613Z,14.14
2022-09-02T05:46:24.404Z,14.18
2022-09-02T05:49:17.211Z,14.25
2022-09-02T05:51:50.650Z,14.19
2022-09-02T05:54:28.561Z,14.14
2022-09-02T05:56:58.103Z,14.21
2022-09-02T05:59:26.910Z,14.30
2022-09-02T06:01:54.353Z,14.39
2022-09-02T06:04:22.463Z,14.46
2022-09-02T06:06:50.182Z,14.49
2022-09-02T06:09:21.127Z,14.56
2022-09-02T06:11:51.688Z,14.62
2022-09-02T06:14:21.848Z,14.66
2022-09-02T06:16:50.322Z,14.67
2022-09-02T06:19:20.437Z,14.64
2022-09-02T06:21:49.128Z,14.73
2022-09-02T06:24:16.229Z,14.68
2022-09-02T06:26:43.739Z,14.68
2022-09-02T06:29:11.031Z,14.73
2022-09-02T06:31:41.352Z,14.78
2022-09-02T06:34:09.093Z,14.87
2022-09-02T06:36:36.169Z,14.92
2022-09-02T06:39:03.273Z,14.97
2022-09-02T06:41:33.360Z,15.02
2022-09-02T06:44:02.594Z,15.09
2022-09-02T06:46:33.934Z,15.13
2022-09-02T06:49:01.667Z,15.17
2022-09-02T06:51:33.156Z,15.29
2022-09-02T06:54:00.730Z,15.36
2022-09-02T06:56:28.718Z,15.42
2022-09-02T06:58:56.536Z,15.52
2022-09-02T07:01:27.171Z,15.65
2022-09-02T07:04:13.147Z,15.72
2022-09-02T07:06:41.013Z,15.79
2022-09-02T07:09:10.858Z,15.82
2022-09-02T07:11:39.934Z,15.88
2022-09-02T07:14:06.990Z,15.97
2022-09-02T07:16:42.165Z,16.05
2022-09-02T07:19:14.064Z,16.12
2022-09-02T07:21:43.679Z,16.23
2022-09-02T07:24:12.950Z,16.28
2022-09-02T07:26:40.659Z,16.27
2022-09-02T07:29:08.976Z,16.28
2022-09-02T07:31:38.476Z,16.37
2022-09-02T07:34:06.511Z,16.44
2022-09-02T07:36:34.966Z,16.55
2022-09-02T07:39:04.513Z,16.62
2022-09-02T07:41:31.792Z,16.68
2022-09-02T07:43:59.815Z,16.77
2022-09-02T07:46:29.444Z,16.83
2022-09-02T07:48:57.021Z,16.94
2022-09-02T07:51:24.203Z,17.01
2022-09-02T07:53:58.098Z,17.07
2022-09-02T07:56:25.448Z,17.12
2022-09-02T07:58:52.871Z,17.14
2022-09-02T08:01:23.570Z,17.20
2022-09-02T08:03:51.743Z,17.28
2022-09-02T08:06:33.792Z,17.35
2022-09-02T08:09:11.149Z,17.46
2022-09-02T08:11:40.314Z,17.57
2022-09-02T08:14:11.369Z,17.67
2022-09-02T08:16:39.212Z,17.74
2022-09-02T08:19:07.996Z,17.72
2022-09-02T08:21:35.493Z,17.70
2022-09-02T08:24:02.757Z,17.71
2022-09-02T08:26:30.295Z,17.76
2022-09-02T08:28:57.665Z,17.82
2022-09-02T08:31:24.849Z,17.86
2022-09-02T08:33:52.028Z,17.96
2022-09-02T08:36:21.000Z,18.05
2022-09-02T08:38:50.797Z,18.11
2022-09-02T08:41:21.712Z,18.18
2022-09-02T08:43:50.510Z,18.25
2022-09-02T08:46:18.635Z,18.33
2022-09-02T08:48:54.146Z,18.41
2022-09-02T08:51:33.803Z,18.49
2022-09-02T08:54:06.177Z,18.56
2022-09-02T08:56:33.331Z,18.64
2022-09-02T08:59:03.110Z,18.70
2022-09-02T09:01:38.295Z,18.75
2022-09-02T09:04:14.105Z,18.84
2022-09-02T09:06:50.232Z,18.91
2022-09-02T09:09:45.108Z,18.97
2022-09-02T09:12:41.535Z,19.04
2022-09-02T09:15:50.221Z,19.14
2022-09-02T09:18:24.193Z,19.23
2022-09-02T09:20:51.395Z,19.32
2022-09-02T09:23:34.874Z,19.39
2022-09-02T09:26:12.178Z,19.42
2022-09-02T09:28:44.705Z,19.44
2022-09-02T09:31:24.984Z,19.48
2022-09-02T09:34:12.829Z,19.53
2022-09-02T09:36:47.964Z,19.61
2022-09-02T09:39:26.127Z,19.70
2022-09-02T09:41:57.830Z,19.77
2022-09-02T09:44:46.121Z,19.81
2022-09-02T09:47:19.574Z,19.87
2022-09-02T09:49:48.614Z,19.93
2022-09-02T09:52:23.507Z,19.98
2022-09-02T09:55:12.662Z,20.04
2022-09-02T09:57:44.690Z,20.11
2022-09-02T10:00:16.353Z,20.16
2022-09-02T10:02:51.271Z,20.22
2022-09-02T10:05:19.975Z,20.27
2022-09-02T10:07:59.312Z,20.36
2022-09-02T10:10:28.886Z,20.46
2022-09-02T10:13:00.154Z,20.49
2022-09-02T10:15:38.663Z,20.52
2022-09-02T10:18:22.407Z,20.53
2022-09-02T10:21:16.557Z,20.67
2022-09-02T10:23:52.709Z,20.85
2022-09-02T10:29:21.064Z,21.01
2022-09-02T10:32:05.392Z,21.16
2022-09-02T10:34:50.836Z,21.29
2022-09-02T10:37:19.670Z,21.29
2022-09-02T10:40:10.223Z,21.29
2022-09-02T10:43:07.235Z,21.15
2022-09-02T10:46:01.114Z,21.13
2022-09-02T10:49:05.726Z,21.07
2022-09-02T10:51:45.073Z,21.14
2022-09-02T10:54:23.470Z,21.24
2022-09-02T10:57:15.724Z,21.33
2022-09-02T10:59:56.623Z,21.35
2022-09-02T11:02:32.052Z,21.41
2022-09-02T11:05:03.808Z,21.57
2022-09-02T11:07:41.757Z,21.64
2022-09-02T11:10:12.580Z,21.52
2022-09-02T11:12:44.424Z,21.39
2022-09-02T11:15:17.407Z,21.33
2022-09-02T11:17:49.636Z,21.27
2022-09-02T11:20:45.672Z,21.27
2022-09-02T11:23:40.070Z,21.43
2022-09-02T11:26:12.091Z,21.51
2022-09-02T11:28:59.787Z,21.76
2022-09-02T11:31:39.323Z,22.13
2022-09-02T11:34:21.507Z,22.44
2022-09-02T11:36:49.144Z,22.71
2022-09-02T11:39:42.835Z,22.82
2022-09-02T11:42:22.777Z,23.04
2022-09-02T11:45:10.249Z,23.25
2022-09-02T11:47:52.971Z,23.39
2022-09-02T11:50:40.449Z,23.59
2022-09-02T11:53:17.995Z,23.64
2022-09-02T11:55:50.986Z,23.64
2022-09-02T11:58:39.075Z,23.76
2022-09-02T12:01:15.042Z,23.91
2022-09-02T12:07:09.122Z,24.21
2022-09-02T12:12:36.766Z,24.29
2022-09-02T12:15:04.820Z,24.21
2022-09-02T12:17:39.943Z,24.38
2022-09-02T12:20:11.128Z,24.64
2022-09-02T12:22:39.949Z,24.78
2022-09-02T12:25:28.220Z,25.00
2022-09-02T12:28:25.285Z,25.19
2022-09-02T12:30:56.018Z,25.27
2022-09-02T12:33:36.688Z,25.42
2022-09-02T12:36:05.325Z,25.63
2022-09-02T12:38:40.190Z,25.64
2022-09-02T12:41:13.157Z,25.48
2022-09-02T12:43:47.944Z,25.25
2022-09-02T12:46:27.747Z,25.12
2022-09-02T12:49:04.819Z,24.92
2022-09-02T12:51:51.655Z,24.77
2022-09-02T12:54:24.707Z,24.59
2022-09-02T12:56:52.647Z,24.46
2022-09-02T12:59:37.603Z,24.56
2022-09-02T13:02:14.620Z,24.58
2022-09-02T13:04:45.074Z,24.52
2022-09-02T13:07:33.298Z,24.53
2022-09-02T13:10:22.328Z,24.30
2022-09-02T13:13:04.535Z,24.15
2022-09-02T13:15:52.041Z,24.22
2022-09-02T13:18:50.559Z,24.46
2022-09-02T13:21:45.428Z,24.97
2022-09-02T13:24:29.556Z,25.38
2022-09-02T13:27:15.985Z,25.94
2022-09-02T13:30:03.056Z,26.36
2022-09-02T13:32:30.911Z,26.40
2022-09-02T13:35:02.034Z,26.45
2022-09-02T13:37:39.185Z,26.43
2022-09-02T13:40:21.839Z,26.12
2022-09-02T13:42:54.895Z,25.91
2022-09-02T13:45:26.519Z,25.55
2022-09-02T13:47:55.800Z,25.54
2022-09-02T13:50:25.548Z,25.44
2022-09-02T13:53:49.277Z,25.54
2022-09-02T13:55:49.738Z,25.57
2022-09-02T13:58:28.870Z,25.48
2022-09-02T14:01:01.701Z,25.97
2022-09-02T14:03:32.661Z,26.39
2022-09-02T14:06:00.808Z,26.93
2022-09-02T14:08:29.136Z,27.43
2022-09-02T14:10:56.619Z,27.75
2022-09-02T14:13:23.900Z,27.94
2022-09-02T14:15:51.061Z,28.14
2022-09-02T14:18:20.575Z,28.50
2022-09-02T14:21:00.049Z,28.82
2022-09-02T14:23:29.247Z,28.92
2022-09-02T14:25:58.554Z,28.93
2022-09-02T14:28:33.806Z,29.10
2022-09-02T14:31:08.777Z,29.27
2022-09-02T14:33:35.912Z,29.59
2022-09-02T14:36:06.163Z,29.86
2022-09-02T14:38:48.939Z,29.92
2022-09-02T14:41:23.354Z,29.84
2022-09-02T14:43:57.097Z,30.10
2022-09-02T14:46:30.032Z,30.18
2022-09-02T14:49:01.745Z,29.98
2022-09-02T14:51:34.219Z,29.74
2022-09-02T14:54:01.578Z,29.36
2022-09-02T14:56:45.387Z,29.01
2022-09-02T14:59:12.532Z,28.82
2022-09-02T15:01:41.595Z,28.57
2022-09-02T15:04:09.501Z,28.12
2022-09-02T15:06:36.643Z,27.66
2022-09-02T15:09:04.381Z,27.46
2022-09-02T15:11:31.737Z,27.55
2022-09-02T15:13:59.192Z,27.91
2022-09-02T15:16:26.270Z,28.02
2022-09-02T15:18:53.448Z,27.95
2022-09-02T15:21:20.988Z,28.15
2022-09-02T15:23:51.281Z,28.61
2022-09-02T15:26:18.534Z,29.08
2022-09-02T15:28:45.661Z,29.19
2022-09-02T15:31:13.144Z,29.72
2022-09-02T15:33:41.901Z,29.98
2022-09-02T15:36:11.822Z,29.68
2022-09-02T15:38:40.976Z,29.21
2022-09-02T15:41:12.856Z,28.48
2022-09-02T15:43:40.291Z,27.69
2022-09-02T15:46:27.248Z,27.35
2022-09-02T15:49:01.668Z,27.14
2022-09-02T15:51:29.793Z,26.93
2022-09-02T15:53:58.717Z,26.73
2022-09-02T15:56:27.579Z,26.91
2022-09-02T15:58:59.662Z,27.56
2022-09-02T16:01:28.140Z,27.49
2022-09-02T16:03:55.884Z,27.59
2022-09-02T16:06:23.089Z,27.76
2022-09-02T16:08:50.599Z,28.03
2022-09-02T16:11:18.840Z,28.19
2022-09-02T16:13:45.910Z,28.63
2022-09-02T16:16:13.945Z,28.61
2022-09-02T16:18:42.228Z,28.22
2022-09-02T16:21:11.059Z,28.07
2022-09-02T16:23:38.644Z,27.85
2022-09-02T16:26:11.366Z,27.50
2022-09-02T16:28:39.991Z,27.21
2022-09-02T16:31:08.632Z,26.84
2022-09-02T16:33:36.017Z,26.39
2022-09-02T16:36:04.368Z,26.07
2022-09-02T16:38:31.669Z,25.87
2022-09-02T16:40:58.829Z,25.82
2022-09-02T16:43:25.958Z,25.52
2022-09-02T16:45:54.284Z,25.28
2022-09-02T16:48:25.809Z,25.12
2022-09-02T16:50:53.040Z,25.00
2022-09-02T16:53:20.151Z,24.68
2022-09-02T16:55:47.491Z,24.56
2022-09-02T16:58:14.600Z,24.48
2022-09-02T17:00:42.013Z,24.13
2022-09-02T17:03:12.440Z,24.05
2022-09-02T17:05:39.740Z,23.80
2022-09-02T17:08:07.116Z,23.65
2022-09-02T17:10:35.130Z,23.48
2022-09-02T17:13:02.329Z,23.32
2022-09-02T17:15:30.691Z,23.08
2022-09-02T17:17:57.855Z,22.99
2022-09-02T17:20:25.285Z,22.80
2022-09-02T17:22:52.577Z,22.79
2022-09-02T17:25:19.718Z,22.64
2022-09-02T17:27:46.776Z,22.57
2022-09-02T17:30:13.864Z,22.57
2022-09-02T17:32:41.355Z,22.40
2022-09-02T17:35:09.617Z,22.11
2022-09-02T17:37:37.325Z,22.01
2022-09-02T17:40:06.281Z,21.83
2022-09-02T17:42:33.870Z,21.70
2022-09-02T17:45:01.200Z,21.65
2022-09-02T17:47:31.592Z,21.66
2022-09-02T17:49:59.159Z,21.67
2022-09-02T17:52:26.601Z,21.61
2022-09-02T17:54:54.222Z,21.63
2022-09-02T17:57:42.912Z,21.59
2022-09-02T18:00:26.472Z,21.46
2022-09-02T18:02:59.180Z,21.29
2022-09-02T18:05:53.261Z,21.16
2022-09-02T18:08:36.423Z,21.02
2022-09-02T18:11:06.538Z,20.99
2022-09-02T18:14:08.594Z,20.94
2022-09-02T18:17:14.392Z,20.86
2022-09-02T18:20:03.544Z,20.71
2022-09-02T18:22:51.084Z,20.65
2022-09-02T18:25:38.798Z,20.59
2022-09-02T18:28:17.405Z,20.51
2022-09-02T18:30:54.633Z,20.30
2022-09-02T18:33:43.411Z,20.20
2022-09-02T18:36:22.979Z,20.20
2022-09-02T18:39:19.188Z,20.13
2022-09-02T18:42:08.211Z,20.05
2022-09-02T18:44:58.347Z,20.03
2022-09-02T18:47:29.771Z,19.97
2022-09-02T18:49:58.694Z,19.85
2022-09-02T18:52:28.072Z,19.80
2022-09-02T18:55:14.955Z,19.74
2022-09-02T18:57:51.481Z,19.64
2022-09-02T19:00:22.714Z,19.62
2022-09-02T19:03:05.473Z,19.55
2022-09-02T19:05:36.102Z,19.39
2022-09-02T19:08:25.977Z,19.33
2022-09-02T19:11:09.321Z,19.26
2022-09-02T19:13:55.451Z,19.11
2022-09-02T19:16:30.156Z,19.08
2022-09-02T19:18:57.276Z,19.03
2022-09-02T19:21:35.225Z,19.04
2022-09-02T19:24:04.491Z,18.98
2022-09-02T19:26:31.775Z,18.93
2022-09-02T19:28:59.503Z,18.93
2022-09-02T19:31:28.269Z,18.80
2022-09-02T19:33:57.189Z,18.75
2022-09-02T19:36:29.428Z,18.67
2022-09-02T19:39:00.038Z,18.66
2022-09-02T19:41:27.923Z,18.61
2022-09-02T19:43:55.064Z,18.53
2022-09-02T19:46:56.100Z,18.49
2022-09-02T19:49:10.433Z,18.50
2022-09-02T19:51:37.607Z,18.43
2022-09-02T19:54:04.759Z,18.37
2022-09-02T19:56:31.818Z,18.30
2022-09-02T19:58:59.054Z,18.27
2022-09-02T20:01:26.424Z,18.19
2022-09-02T20:03:53.571Z,18.23
2022-09-02T20:06:20.603Z,18.21
2022-09-02T20:08:47.994Z,18.21
2022-09-02T20:11:15.144Z,18.09
2022-09-02T20:13:42.440Z,18.08
2022-09-02T20:16:20.397Z,18.09
2022-09-02T20:18:52.961Z,18.04
2022-09-02T20:21:23.308Z,17.94
2022-09-02T20:23:50.698Z,17.90
2022-09-02T20:26:20.601Z,17.85
2022-09-02T20:28:56.191Z,17.80
2022-09-02T20:31:54.296Z,17.78
2022-09-02T20:34:29.832Z,17.73
2022-09-02T20:37:15.866Z,17.62
2022-09-02T20:40:06.788Z,17.58
2022-09-02T20:42:52.432Z,17.52
2022-09-02T20:45:26.479Z,17.45
2022-09-02T20:48:27.402Z,17.43
2022-09-02T20:51:08.248Z,17.39
2022-09-02T20:54:13.020Z,17.37
2022-09-02T20:57:07.572Z,17.29
2022-09-02T21:00:02.274Z,17.27
2022-09-02T21:02:33.924Z,17.31
2022-09-02T21:05:12.091Z,17.33
2022-09-02T21:07:45.579Z,17.28
2022-09-02T21:10:22.199Z,17.18
2022-09-02T21:12:55.095Z,17.11
2022-09-02T21:15:28.938Z,17.07
2022-09-02T21:18:19.037Z,17.00
2022-09-02T21:20:59.450Z,16.95
2022-09-02T21:23:46.662Z,16.97
2022-09-02T21:26:18.555Z,16.85
2022-09-02T21:28:55.418Z,16.77
2022-09-02T21:31:29.702Z,16.81
2022-09-02T21:34:01.092Z,16.74
2022-09-02T21:36:30.319Z,16.70
2022-09-02T21:38:58.390Z,16.69
2022-09-02T21:41:29.008Z,16.63
2022-09-02T21:44:05.336Z,16.64
2022-09-02T21:46:38.202Z,16.66
2022-09-02T21:49:36.935Z,16.58
2022-09-02T21:52:06.702Z,16.53
2022-09-02T21:55:13.695Z,16.60
2022-09-02T21:58:14.596Z,16.55
2022-09-02T22:01:00.700Z,16.54
2022-09-02T22:03:41.757Z,16.54
2022-09-02T22:06:16.085Z,16.48
2022-09-02T22:08:50.314Z,16.43
2022-09-02T22:11:33.050Z,16.35
2022-09-02T22:14:28.123Z,16.29
2022-09-02T22:17:01.650Z,16.28
2022-09-02T22:19:31.842Z,16.23
2022-09-02T22:22:09.034Z,16.15
2022-09-02T22:24:37.436Z,16.08
2022-09-02T22:27:11.350Z,16.10
2022-09-02T22:29:53.440Z,16.07
2022-09-02T22:32:23.616Z,16.06
2022-09-02T22:35:09.382Z,15.99
2022-09-02T22:37:58.361Z,15.93
2022-09-02T22:40:28.907Z,15.91
2022-09-02T22:43:00.751Z,15.95
2022-09-02T22:45:52.735Z,15.90
2022-09-02T22:48:51.220Z,15.90
2022-09-02T22:51:46.989Z,15.79
2022-09-02T22:54:14.470Z,15.76
2022-09-02T22:57:03.262Z,15.79
2022-09-02T22:59:48.720Z,15.79
2022-09-02T23:02:27.104Z,15.71
2022-09-02T23:05:49.243Z,15.65
2022-09-02T23:08:20.338Z,15.60
2022-09-02T23:10:57.426Z,15.60
2022-09-02T23:13:45.841Z,15.55
2022-09-02T23:16:27.985Z,15.56
2022-09-02T23:19:34.765Z,15.49
2022-09-02T23:22:04.799Z,15.43
2022-09-02T23:24:56.118Z,15.41
2022-09-02T23:27:30.932Z,15.41
2022-09-02T23:29:58.103Z,15.39
2022-09-02T23:32:43.356Z,15.36
2022-09-02T23:35:17.360Z,15.32
2022-09-02T23:38:01.486Z,15.34
2022-09-02T23:40:54.506Z,15.31
2022-09-02T23:43:21.950Z,15.36
2022-09-02T23:45:49.110Z,15.36
2022-09-02T23:48:36.604Z,15.34
2022-09-02T23:51:24.950Z,15.29
2022-09-02T23:54:19.554Z,15.26
2022-09-02T23:57:01.291Z,15.26
